createdAt,value
2022-10-17T00:04:44.309Z,2.08
2022-10-17T00:09:45.767Z,2.47
2022-10-17T00:14:47.226Z,2.30
2022-10-17T00:19:48.681Z,2.28
2022-10-17T00:24:50.142Z,2.67
2022-10-17T00:29:51.816Z,2.25
2022-10-17T00:34:53.265Z,2.17
2022-10-17T00:39:54.707Z,2.50
2022-10-17T00:45:20.883Z,2.60
2022-10-17T00:50:22.337Z,2.38
2022-10-17T00:55:25.561Z,2.20
2022-10-17T01:00:27.113Z,2.42
2022-10-17T01:05:28.670Z,2.50
2022-10-17T01:10:33.112Z,1.80
2022-10-17T01:15:43.637Z,2.08
2022-10-17T01:21:09.429Z,2.53
2022-10-17T01:26:44.017Z,2.47
2022-10-17T01:37:08.524Z,2.10
2022-10-17T01:42:25.740Z,2.00
2022-10-17T01:47:31.887Z,2.30
2022-10-17T01:52:38.685Z,2.80
2022-10-17T01:57:42.365Z,2.42
2022-10-17T02:02:43.949Z,1.90
2022-10-17T02:07:45.403Z,2.53
2022-10-17T02:13:07.509Z,2.30
2022-10-17T02:18:38.223Z,2.40
2022-10-17T02:23:52.115Z,2.95
2022-10-17T02:29:15.106Z,2.90
2022-10-17T02:34:30.693Z,2.13
2022-10-17T02:39:32.140Z,1.63
2022-10-17T02:44:33.584Z,2.60
2022-10-17T02:49:37.266Z,2.33
2022-10-17T02:54:43.692Z,2.60
2022-10-17T02:59:45.453Z,2.38
2022-10-17T03:04:46.959Z,2.97
2022-10-17T03:09:48.409Z,1.83
2022-10-17T03:14:49.855Z,1.88
2022-10-17T03:19:51.319Z,1.95
2022-10-17T03:24:52.779Z,2.45
2022-10-17T03:29:54.235Z,2.60
2022-10-17T03:34:55.681Z,3.00
2022-10-17T03:39:57.133Z,2.65
2022-10-17T03:44:58.580Z,1.77
2022-10-17T03:50:00.070Z,2.47
2022-10-17T03:55:01.535Z,2.65
2022-10-17T04:00:03.949Z,2.33
2022-10-17T04:05:05.818Z,2.70
2022-10-17T04:10:07.689Z,2.28
2022-10-17T04:15:09.544Z,2.28
2022-10-17T04:20:11.028Z,2.47
2022-10-17T04:25:12.482Z,2.25
2022-10-17T04:30:13.955Z,2.80
2022-10-17T04:35:15.462Z,2.58
2022-10-17T04:40:16.996Z,2.95
2022-10-17T04:45:18.461Z,2.60
2022-10-17T04:50:19.910Z,2.63
2022-10-17T04:55:21.363Z,2.55
2022-10-17T05:00:22.816Z,2.60
2022-10-17T05:05:24.294Z,2.72
2022-10-17T05:10:25.732Z,3.17
2022-10-17T05:15:27.180Z,3.13
2022-10-17T05:20:28.625Z,2.38
2022-10-17T05:25:30.079Z,3.03
2022-10-17T05:30:35.192Z,2.63
2022-10-17T05:35:38.954Z,3.35
2022-10-17T05:40:40.404Z,4.00
2022-10-17T05:45:41.901Z,3.40
2022-10-17T05:50:43.362Z,3.25
2022-10-17T05:55:44.809Z,3.55
2022-10-17T06:05:52.642Z,3.78
2022-10-17T06:10:54.102Z,3.58
2022-10-17T06:15:55.569Z,4.07
2022-10-17T06:21:07.824Z,3.83
2022-10-17T06:26:09.264Z,4.25
2022-10-17T06:31:13.121Z,4.80
2022-10-17T06:36:14.757Z,4.00
2022-10-17T06:41:16.623Z,4.20
2022-10-17T06:46:18.652Z,3.88
2022-10-17T06:51:20.129Z,4.38
2022-10-17T06:56:21.589Z,3.95
2022-10-17T07:01:23.091Z,4.32
2022-10-17T07:06:24.699Z,4.95
2022-10-17T07:11:26.148Z,4.38
2022-10-17T07:16:27.910Z,5.35
2022-10-17T07:21:29.423Z,4.85
2022-10-17T07:26:30.872Z,4.50
2022-10-17T07:31:32.316Z,4.82
2022-10-17T07:36:33.789Z,4.68
2022-10-17T07:41:35.249Z,5.25
2022-10-17T07:46:36.704Z,5.55
2022-10-17T07:51:38.232Z,5.57
2022-10-17T07:56:39.699Z,5.70
2022-10-17T08:01:41.159Z,5.25
2022-10-17T08:06:42.628Z,5.55
2022-10-17T08:11:44.185Z,5.93
2022-10-17T08:16:45.700Z,6.45
2022-10-17T08:21:47.159Z,6.75
2022-10-17T08:26:51.710Z,6.07
2022-10-17T08:31:58.512Z,6.03
2022-10-17T08:37:03.007Z,7.07
2022-10-17T08:42:26.957Z,6.82
2022-10-17T08:47:40.962Z,6.63
2022-10-17T08:52:51.792Z,6.55
2022-10-17T08:57:53.271Z,6.65
2022-10-17T09:03:15.978Z,6.30
2022-10-17T09:08:22.666Z,6.38
2022-10-17T09:13:32.742Z,5.78
2022-10-17T09:18:43.070Z,5.80
2022-10-17T09:23:53.304Z,6.07
2022-10-17T09:29:01.158Z,6.18
2022-10-17T09:34:02.802Z,5.95
2022-10-17T09:39:22.386Z,6.45
2022-10-17T09:44:25.820Z,6.50
2022-10-17T09:49:33.359Z,6.45
2022-10-17T09:54:50.416Z,6.22
2022-10-17T10:00:02.503Z,6.78
2022-10-17T10:05:17.224Z,5.90
2022-10-17T10:10:27.779Z,6.30
2022-10-17T10:15:32.422Z,6.43
2022-10-17T10:20:35.655Z,7.72
2022-10-17T10:25:37.120Z,7.40
2022-10-17T10:30:39.934Z,6.60
2022-10-17T10:35:41.659Z,7.00
2022-10-17T10:40:48.068Z,6.82
2022-10-17T10:45:49.573Z,7.00
2022-10-17T10:51:12.424Z,7.90
2022-10-17T10:56:24.707Z,7.43
2022-10-17T11:02:13.128Z,7.55
2022-10-17T11:07:15.994Z,8.15
2022-10-17T11:12:20.917Z,7.82
2022-10-17T11:17:35.120Z,7.63
2022-10-17T11:22:47.926Z,7.38
2022-10-17T11:27:49.430Z,8.73
2022-10-17T11:32:53.820Z,7.75
2022-10-17T11:38:24.437Z,8.05
2022-10-17T11:43:32.330Z,8.55
2022-10-17T11:49:07.618Z,9.00
2022-10-17T11:54:13.781Z,8.43
2022-10-17T11:59:38.237Z,7.45
2022-10-17T12:04:49.622Z,7.50
2022-10-17T12:09:54.318Z,7.10
2022-10-17T12:15:24.309Z,7.60
2022-10-17T12:20:27.728Z,7.78
2022-10-17T12:25:32.046Z,7.40
2022-10-17T12:30:33.662Z,7.35
2022-10-17T12:35:36.372Z,6.60
2022-10-17T12:40:37.684Z,6.72
2022-10-17T12:45:58.062Z,6.85
2022-10-17T12:56:46.720Z,6.25
2022-10-17T13:01:50.977Z,5.97
2022-10-17T13:06:54.326Z,7.22
2022-10-17T13:11:57.463Z,6.80
2022-10-17T13:17:00.730Z,7.25
2022-10-17T13:22:06.900Z,5.93
2022-10-17T13:27:25.547Z,6.50
2022-10-17T13:32:34.555Z,5.85
2022-10-17T13:37:36.139Z,5.40
2022-10-17T13:42:38.951Z,5.13
2022-10-17T13:47:40.426Z,5.55
2022-10-17T13:52:41.902Z,5.38
2022-10-17T13:57:43.354Z,5.18
2022-10-17T14:02:44.846Z,4.53
2022-10-17T14:08:15.110Z,5.72
2022-10-17T14:13:21.537Z,5.55
2022-10-17T14:18:36.467Z,6.00
2022-10-17T14:23:40.391Z,6.03
2022-10-17T14:28:43.360Z,6.90
2022-10-17T14:33:50.446Z,6.88
2022-10-17T14:38:52.754Z,6.70
2022-10-17T14:44:01.980Z,6.22
2022-10-17T14:49:06.193Z,5.75
2022-10-17T14:54:25.057Z,4.97
2022-10-17T15:09:50.251Z,3.22
2022-10-17T15:14:51.805Z,2.53
2022-10-17T15:19:53.330Z,2.50
2022-10-17T15:24:54.816Z,2.20
2022-10-17T15:29:56.269Z,1.95
2022-10-17T15:34:57.774Z,2.20
2022-10-17T15:39:59.228Z,2.50
2022-10-17T15:45:00.717Z,2.17
2022-10-17T15:50:02.258Z,2.90
2022-10-17T15:55:05.535Z,2.67
2022-10-17T16:00:16.370Z,3.53
2022-10-17T16:05:23.075Z,2.97
2022-10-17T16:10:25.862Z,3.85
2022-10-17T16:15:27.967Z,3.30
2022-10-17T16:20:29.462Z,3.25
2022-10-17T16:25:31.270Z,3.30
2022-10-17T16:30:32.815Z,3.78
2022-10-17T16:35:36.762Z,3.72
2022-10-17T16:40:40.114Z,3.80
2022-10-17T16:45:41.576Z,3.63
2022-10-17T16:50:43.033Z,3.83
2022-10-17T16:55:44.479Z,3.53
2022-10-17T17:00:45.998Z,4.38
2022-10-17T17:05:51.744Z,4.00
2022-10-17T17:10:55.292Z,3.75
2022-10-17T17:16:06.977Z,4.15
2022-10-17T17:21:09.099Z,3.80
2022-10-17T17:26:20.858Z,3.58
2022-10-17T17:31:24.359Z,3.83
2022-10-17T17:36:30.565Z,4.05
2022-10-17T17:41:32.114Z,3.67
2022-10-17T17:46:33.570Z,3.88
2022-10-17T17:51:37.406Z,3.60
2022-10-17T17:56:38.881Z,3.78
2022-10-17T18:01:40.445Z,3.47
2022-10-17T18:06:42.006Z,3.95
2022-10-17T18:11:43.452Z,3.80
2022-10-17T18:16:44.909Z,3.42
2022-10-17T18:21:46.390Z,3.63
2022-10-17T18:26:47.849Z,3.63
2022-10-17T18:31:49.397Z,3.78
2022-10-17T18:36:52.769Z,3.55
2022-10-17T18:41:54.342Z,3.60
2022-10-17T18:46:58.563Z,3.30
2022-10-17T18:52:02.963Z,4.13
2022-10-17T18:57:04.554Z,4.00
2022-10-17T19:02:06.543Z,3.80
2022-10-17T19:07:08.089Z,4.47
2022-10-17T19:12:09.545Z,4.25
2022-10-17T19:17:10.994Z,3.95
2022-10-17T19:22:12.450Z,4.07
2022-10-17T19:27:13.932Z,4.53
2022-10-17T19:32:17.933Z,5.38
2022-10-17T19:37:22.175Z,4.72
2022-10-17T19:42:23.685Z,4.72
2022-10-17T19:47:25.318Z,4.57
2022-10-17T19:52:27.649Z,4.97
2022-10-17T19:57:29.239Z,5.47
2022-10-17T20:02:30.913Z,5.18
2022-10-17T20:07:32.563Z,5.88
2022-10-17T20:12:34.224Z,5.30
2022-10-17T20:17:35.701Z,5.10
2022-10-17T20:22:37.176Z,5.85
2022-10-17T20:27:38.658Z,5.28
2022-10-17T20:32:40.126Z,5.97
2022-10-17T20:37:42.737Z,4.60
2022-10-17T20:42:44.553Z,5.45
2022-10-17T20:47:52.327Z,4.65
2022-10-17T20:53:10.974Z,4.75
2022-10-17T20:58:15.456Z,4.90
2022-10-17T21:03:16.904Z,4.40
2022-10-17T21:08:18.352Z,4.43
2022-10-17T21:13:19.796Z,4.75
2022-10-17T21:18:21.237Z,3.90
2022-10-17T21:23:22.720Z,3.95
2022-10-17T21:28:24.177Z,3.95
2022-10-17T21:33:25.643Z,3.55
2022-10-17T21:38:27.089Z,4.35
2022-10-17T21:43:28.558Z,3.90
2022-10-17T21:48:30.013Z,4.80
2022-10-17T21:53:31.493Z,4.45
2022-10-17T21:58:33.455Z,5.15
2022-10-17T22:03:35.638Z,3.90
2022-10-17T22:13:38.450Z,4.25
2022-10-17T22:18:40.017Z,3.22
2022-10-17T22:23:42.225Z,3.35
2022-10-17T22:28:43.675Z,4.53
2022-10-17T22:33:45.144Z,3.20
2022-10-17T22:38:46.593Z,4.53
2022-10-17T22:43:48.164Z,3.92
2022-10-17T22:48:49.643Z,3.38
2022-10-17T22:53:51.106Z,3.58
2022-10-17T22:58:52.599Z,3.33
2022-10-17T23:03:54.147Z,3.92
2022-10-17T23:08:55.649Z,3.58
2022-10-17T23:13:57.140Z,3.13
2022-10-17T23:18:58.646Z,3.33
2022-10-17T23:24:00.095Z,3.28
2022-10-17T23:29:01.608Z,4.32
2022-10-17T23:34:03.163Z,2.78
2022-10-17T23:39:05.484Z,3.72
2022-10-17T23:44:06.974Z,2.88
2022-10-17T23:49:08.430Z,3.65
2022-10-17T23:54:09.871Z,3.30
2022-10-17T23:59:11.371Z,3.33
